createdAt,value
2019-01-16T00:03:21.154Z,82.98
2019-01-16T00:05:55.219Z,83.05
2019-01-16T00:08:29.242Z,82.86
2019-01-16T00:11:06.674Z,82.97
2019-01-16T00:15:51.000Z,83.24
2019-01-16T00:18:25.347Z,82.97
2019-01-16T00:23:06.976Z,83.24
2019-01-16T00:25:43.974Z,83.30
2019-01-16T00:29:16.831Z,83.33
2019-01-16T00:31:54.382Z,83.41
2019-01-16T00:35:02.743Z,83.46
2019-01-16T00:37:37.675Z,83.38
2019-01-16T00:40:13.126Z,83.18
2019-01-16T00:42:47.302Z,83.17
2019-01-16T00:45:35.674Z,83.02
2019-01-16T00:49:10.534Z,82.87
2019-01-16T00:53:47.716Z,82.82
2019-01-16T00:56:22.744Z,82.60
2019-01-16T00:58:57.644Z,82.43
2019-01-16T01:01:32.574Z,82.71
2019-01-16T01:04:06.868Z,82.66
2019-01-16T01:06:41.392Z,82.75
2019-01-16T01:09:33.560Z,82.60
2019-01-16T01:12:11.549Z,82.83
2019-01-16T01:14:45.560Z,82.85
2019-01-16T01:17:22.514Z,82.88
2019-01-16T01:22:02.128Z,82.90
2019-01-16T01:25:33.977Z,82.35
2019-01-16T01:28:08.209Z,82.24
2019-01-16T01:30:53.264Z,82.22
2019-01-16T01:33:31.473Z,82.14
2019-01-16T01:38:09.480Z,81.96
2019-01-16T01:40:50.499Z,81.88
2019-01-16T01:43:27.466Z,81.11
2019-01-16T01:46:03.984Z,81.41
2019-01-16T01:50:45.603Z,81.30
2019-01-16T01:53:29.751Z,81.02
2019-01-16T01:58:06.854Z,80.78
2019-01-16T02:00:55.194Z,80.73
2019-01-16T02:03:29.181Z,80.63
2019-01-16T02:06:04.060Z,80.74
2019-01-16T02:08:37.712Z,80.54
2019-01-16T02:11:11.878Z,80.51
2019-01-16T02:13:45.510Z,80.53
2019-01-16T02:16:19.727Z,80.55
2019-01-16T02:19:53.234Z,80.51
2019-01-16T02:22:27.554Z,80.54
2019-01-16T02:25:02.894Z,80.43
2019-01-16T02:27:45.286Z,80.48
2019-01-16T02:32:26.497Z,80.48
2019-01-16T02:35:59.250Z,80.25
2019-01-16T02:38:32.430Z,80.24
2019-01-16T02:41:13.404Z,80.34
2019-01-16T02:45:50.405Z,80.70
2019-01-16T02:50:32.366Z,80.55
2019-01-16T02:53:05.519Z,80.58
2019-01-16T02:55:41.661Z,80.58
2019-01-16T02:58:16.376Z,80.72
2019-01-16T03:02:58.755Z,80.78
2019-01-16T03:05:40.148Z,80.45
2019-01-16T03:08:14.561Z,80.52
2019-01-16T03:10:48.536Z,80.55
2019-01-16T03:14:30.327Z,80.67
2019-01-16T03:17:05.463Z,80.50
2019-01-16T03:19:40.538Z,80.83
2019-01-16T03:22:18.691Z,80.50
2019-01-16T03:24:53.428Z,80.49
2019-01-16T03:29:32.585Z,80.47
2019-01-16T03:32:10.632Z,80.38
2019-01-16T03:34:45.587Z,80.54
2019-01-16T03:38:17.906Z,80.40
2019-01-16T03:41:00.102Z,80.46
2019-01-16T03:43:40.256Z,80.39
2019-01-16T03:46:18.374Z,80.41
2019-01-16T03:48:52.967Z,80.49
2019-01-16T03:51:27.273Z,80.52
2019-01-16T03:54:02.776Z,80.59
2019-01-16T03:57:03.694Z,80.45
2019-01-16T03:59:38.679Z,80.39
2019-01-16T04:02:12.887Z,80.56
2019-01-16T04:05:02.296Z,80.48
2019-01-16T04:08:09.359Z,80.59
2019-01-16T04:10:43.483Z,80.47
2019-01-16T04:13:21.493Z,80.40
2019-01-16T04:15:57.614Z,80.40
2019-01-16T04:18:31.672Z,80.24
2019-01-16T04:21:06.826Z,80.20
2019-01-16T04:25:44.452Z,80.13
2019-01-16T04:28:21.579Z,80.18
2019-01-16T04:30:55.676Z,79.92
2019-01-16T04:33:30.724Z,80.06
2019-01-16T04:36:04.708Z,80.12
2019-01-16T04:39:10.649Z,80.02
2019-01-16T04:41:45.424Z,80.14
2019-01-16T04:45:24.196Z,79.97
2019-01-16T04:47:58.551Z,80.15
2019-01-16T04:52:35.511Z,79.96
2019-01-16T04:55:24.141Z,79.86
2019-01-16T04:58:08.050Z,79.86
2019-01-16T05:00:42.324Z,79.51
2019-01-16T05:03:15.542Z,79.83
2019-01-16T05:05:50.628Z,79.96
2019-01-16T05:08:31.740Z,79.79
2019-01-16T05:11:38.270Z,79.89
2019-01-16T05:14:14.878Z,79.82
2019-01-16T05:16:49.747Z,79.78
2019-01-16T05:19:54.877Z,79.57
2019-01-16T05:23:31.322Z,79.74
2019-01-16T05:26:05.423Z,79.76
2019-01-16T05:28:58.236Z,79.68
2019-01-16T05:31:42.122Z,79.51
2019-01-16T05:34:19.218Z,79.56
2019-01-16T05:36:59.162Z,79.62
2019-01-16T05:39:37.340Z,79.80
2019-01-16T05:42:21.486Z,79.98
2019-01-16T05:44:58.771Z,79.93
2019-01-16T05:49:46.620Z,80.42
2019-01-16T05:52:33.915Z,80.76
2019-01-16T06:01:36.993Z,80.67
2019-01-16T06:04:18.998Z,80.19
2019-01-16T06:06:53.093Z,80.26
2019-01-16T06:10:24.941Z,80.46
2019-01-16T06:13:07.847Z,80.62
2019-01-16T06:16:14.278Z,80.83
2019-01-16T06:19:21.087Z,80.97
2019-01-16T06:21:59.178Z,81.66
2019-01-16T06:25:04.017Z,81.82
2019-01-16T06:27:38.119Z,82.02
2019-01-16T06:30:15.187Z,82.54
2019-01-16T06:32:49.562Z,82.58
2019-01-16T06:37:26.930Z,82.71
2019-01-16T06:40:05.056Z,82.92
2019-01-16T06:42:45.064Z,82.99
2019-01-16T06:46:19.403Z,83.17
2019-01-16T06:49:25.761Z,83.37
2019-01-16T06:54:07.312Z,83.40
2019-01-16T06:56:41.369Z,83.26
2019-01-16T06:59:15.395Z,83.26
2019-01-16T07:02:48.390Z,83.11
2019-01-16T07:05:29.490Z,82.89
2019-01-16T07:08:40.036Z,82.78
2019-01-16T07:11:21.211Z,82.55
2019-01-16T07:14:00.742Z,82.71
2019-01-16T07:17:05.856Z,82.32
2019-01-16T07:19:40.973Z,82.02
2019-01-16T07:23:15.795Z,81.94
2019-01-16T07:25:51.300Z,81.75
2019-01-16T07:28:56.960Z,81.49
2019-01-16T07:31:33.053Z,81.27
2019-01-16T07:35:10.446Z,81.28
2019-01-16T07:37:44.583Z,81.20
2019-01-16T07:40:18.942Z,80.96
2019-01-16T07:42:54.941Z,80.99
2019-01-16T07:45:40.205Z,80.76
2019-01-16T07:48:15.001Z,80.70
2019-01-16T07:50:53.326Z,80.61
2019-01-16T07:54:27.850Z,80.58
2019-01-16T07:57:04.055Z,80.58
2019-01-16T07:59:40.070Z,80.38
2019-01-16T08:02:43.544Z,80.29
2019-01-16T08:06:23.216Z,80.27
2019-01-16T08:09:00.249Z,80.02
2019-01-16T08:11:34.325Z,79.90
2019-01-16T08:14:09.808Z,80.09
2019-01-16T08:16:51.033Z,80.10
2019-01-16T08:19:25.516Z,79.90
2019-01-16T08:21:59.824Z,80.11
2019-01-16T08:24:34.899Z,79.99
2019-01-16T08:27:13.771Z,79.71
2019-01-16T08:29:50.920Z,79.92
2019-01-16T08:34:27.628Z,79.95
2019-01-16T08:37:05.001Z,79.70
2019-01-16T08:39:39.943Z,79.60
2019-01-16T08:44:19.911Z,79.55
2019-01-16T08:46:55.520Z,79.60
2019-01-16T08:51:37.901Z,79.43
2019-01-16T08:56:19.355Z,79.43
2019-01-16T09:01:00.429Z,79.37
2019-01-16T09:04:06.938Z,79.33
2019-01-16T09:07:12.046Z,79.08
2019-01-16T09:09:47.005Z,79.27
2019-01-16T09:12:27.242Z,79.36
2019-01-16T09:15:07.350Z,79.44
2019-01-16T09:17:42.642Z,79.39
2019-01-16T09:20:22.442Z,79.26
2019-01-16T09:22:58.520Z,79.33
2019-01-16T09:25:42.907Z,79.37
2019-01-16T09:28:36.225Z,78.96
2019-01-16T09:32:07.990Z,78.98
2019-01-16T09:34:47.085Z,78.83
2019-01-16T09:39:30.239Z,78.58
2019-01-16T09:42:03.358Z,78.65
2019-01-16T09:45:08.780Z,78.33
2019-01-16T09:47:52.615Z,78.31
2019-01-16T09:51:30.478Z,77.98
2019-01-16T09:54:07.420Z,78.09
2019-01-16T09:57:40.643Z,77.89
2019-01-16T10:00:17.576Z,77.78
2019-01-16T10:04:56.834Z,77.83
2019-01-16T10:07:31.366Z,77.30
2019-01-16T10:10:09.156Z,77.23
2019-01-16T10:13:41.358Z,77.26
2019-01-16T10:16:15.611Z,77.31
2019-01-16T10:18:56.482Z,77.26
2019-01-16T10:22:32.067Z,77.08
2019-01-16T10:25:06.089Z,77.11
2019-01-16T10:28:38.848Z,77.05
2019-01-16T10:31:21.796Z,76.97
2019-01-16T10:33:56.307Z,76.32
2019-01-16T10:37:32.433Z,76.57
2019-01-16T10:40:09.078Z,77.15
2019-01-16T10:42:52.105Z,77.47
2019-01-16T10:46:32.945Z,78.01
2019-01-16T10:49:16.089Z,78.03
2019-01-16T10:52:54.021Z,77.89
2019-01-16T10:57:35.395Z,77.84
2019-01-16T11:02:17.589Z,77.53
2019-01-16T11:05:13.340Z,77.97
2019-01-16T11:07:51.031Z,78.18
2019-01-16T11:12:34.144Z,78.26
2019-01-16T11:15:10.533Z,78.27
2019-01-16T11:19:51.696Z,78.33
2019-01-16T11:22:30.886Z,78.30
2019-01-16T11:25:05.380Z,78.37
2019-01-16T11:27:39.439Z,78.06
2019-01-16T11:30:15.584Z,78.35
2019-01-16T11:32:59.322Z,78.50
2019-01-16T11:35:38.300Z,78.36
2019-01-16T11:39:15.197Z,78.37
2019-01-16T11:41:51.781Z,77.97
2019-01-16T11:44:29.108Z,77.81
2019-01-16T11:47:07.677Z,78.29
2019-01-16T11:49:45.982Z,78.21
2019-01-16T11:52:22.198Z,78.27
2019-01-16T11:54:56.272Z,78.06
2019-01-16T11:57:37.287Z,78.15
2019-01-16T12:00:17.792Z,78.18
2019-01-16T12:02:57.328Z,77.76
2019-01-16T12:05:37.728Z,77.80
2019-01-16T12:08:29.178Z,77.73
2019-01-16T12:11:39.253Z,77.64
2019-01-16T12:14:16.004Z,77.57
2019-01-16T12:18:53.238Z,77.64
2019-01-16T12:24:28.473Z,77.13
2019-01-16T12:27:04.767Z,77.03
2019-01-16T12:30:38.752Z,76.89
2019-01-16T12:33:15.803Z,77.18
2019-01-16T12:35:52.605Z,76.94
2019-01-16T12:40:29.228Z,77.11
2019-01-16T12:43:10.019Z,77.06
2019-01-16T12:45:49.989Z,77.01
2019-01-16T12:48:30.055Z,77.19
2019-01-16T12:51:04.350Z,77.07
2019-01-16T12:53:46.718Z,77.13
2019-01-16T12:56:28.741Z,77.11
2019-01-16T12:59:07.658Z,77.04
2019-01-16T13:01:48.869Z,77.06
2019-01-16T13:04:41.995Z,77.25
2019-01-16T13:07:15.987Z,77.21
2019-01-16T13:09:49.129Z,77.37
2019-01-16T13:14:30.127Z,77.39
2019-01-16T13:17:18.929Z,77.35
2019-01-16T13:21:55.857Z,77.22
2019-01-16T13:24:31.212Z,77.27
2019-01-16T13:27:21.583Z,77.24
2019-01-16T13:30:01.914Z,77.56
2019-01-16T13:32:36.156Z,77.50
2019-01-16T13:35:16.626Z,77.22
2019-01-16T13:38:01.770Z,77.25
2019-01-16T13:40:36.374Z,77.27
2019-01-16T13:44:09.430Z,77.23
2019-01-16T13:48:52.876Z,76.96
2019-01-16T13:51:36.110Z,76.95
2019-01-16T13:54:13.660Z,76.71
2019-01-16T13:56:50.889Z,76.63
2019-01-16T13:59:32.272Z,76.62
2019-01-16T14:02:20.862Z,76.64
2019-01-16T14:04:57.986Z,76.62
2019-01-16T14:07:32.194Z,76.67
2019-01-16T14:11:04.152Z,76.84
2019-01-16T14:13:44.192Z,76.71
2019-01-16T14:16:22.297Z,76.76
2019-01-16T14:19:01.870Z,76.21
2019-01-16T14:23:44.373Z,76.24
2019-01-16T14:27:16.486Z,75.91
2019-01-16T14:29:50.778Z,76.01
2019-01-16T14:32:38.881Z,75.77
2019-01-16T14:35:13.795Z,75.57
2019-01-16T14:37:48.028Z,75.48
2019-01-16T14:40:23.220Z,75.38
2019-01-16T14:42:58.647Z,75.09
2019-01-16T14:45:33.033Z,75.00
2019-01-16T14:48:21.994Z,74.72
2019-01-16T14:50:59.100Z,74.47
2019-01-16T14:53:44.086Z,74.35
2019-01-16T14:56:18.457Z,73.89
2019-01-16T15:03:10.003Z,73.89
2019-01-16T15:05:50.418Z,73.35
2019-01-16T15:08:28.530Z,73.44
2019-01-16T15:11:08.978Z,73.22
2019-01-16T15:13:43.126Z,72.76
2019-01-16T15:17:18.033Z,72.50
2019-01-16T15:19:58.016Z,72.30
2019-01-16T15:22:36.967Z,72.32
2019-01-16T15:25:17.577Z,72.29
2019-01-16T15:28:22.715Z,72.34
2019-01-16T15:30:55.977Z,72.34
2019-01-16T15:33:38.996Z,72.31
2019-01-16T15:36:13.072Z,71.94
2019-01-16T15:38:47.102Z,71.82
2019-01-16T15:41:21.453Z,71.39
2019-01-16T15:43:57.497Z,71.16
2019-01-16T15:46:31.950Z,71.06
2019-01-16T15:49:06.643Z,71.12
2019-01-16T15:51:43.467Z,71.35
2019-01-16T15:54:24.002Z,71.08
2019-01-16T15:56:56.880Z,71.02
2019-01-16T15:59:37.385Z,70.91
2019-01-16T16:02:12.152Z,70.81
2019-01-16T16:04:50.194Z,71.15
2019-01-16T16:07:24.325Z,70.65
2019-01-16T16:10:03.841Z,70.83
2019-01-16T16:12:40.468Z,70.69
2019-01-16T16:16:19.231Z,70.85
2019-01-16T16:19:07.483Z,70.94
2019-01-16T16:21:41.780Z,71.06
2019-01-16T16:24:15.151Z,71.13
2019-01-16T16:27:21.299Z,71.13
2019-01-16T16:30:00.345Z,70.99
2019-01-16T16:32:36.563Z,70.57
2019-01-16T16:35:11.279Z,70.77
2019-01-16T16:37:45.347Z,70.48
2019-01-16T16:40:19.608Z,70.71
2019-01-16T16:42:55.519Z,70.53
2019-01-16T16:46:33.559Z,70.62
2019-01-16T16:49:07.501Z,70.81
2019-01-16T16:52:46.486Z,70.93
2019-01-16T16:55:20.717Z,70.63
2019-01-16T16:57:54.756Z,70.47
2019-01-16T17:02:31.688Z,70.40
2019-01-16T17:05:06.706Z,70.31
2019-01-16T17:08:45.611Z,70.55
2019-01-16T17:12:20.547Z,70.72
2019-01-16T17:15:01.902Z,70.97
2019-01-16T17:17:37.299Z,71.00
2019-01-16T17:20:11.565Z,71.03
2019-01-16T17:22:48.771Z,71.08
2019-01-16T17:25:25.731Z,71.32
2019-01-16T17:28:04.851Z,71.66
2019-01-16T17:32:42.353Z,71.83
2019-01-16T17:37:19.179Z,72.08
2019-01-16T17:39:52.570Z,72.32
2019-01-16T17:43:03.040Z,72.73
2019-01-16T17:45:37.092Z,72.66
2019-01-16T17:49:13.243Z,72.71
2019-01-16T17:53:51.554Z,72.90
2019-01-16T17:56:26.022Z,72.36
2019-01-16T18:01:03.478Z,72.54
2019-01-16T18:03:49.726Z,72.47
2019-01-16T18:06:26.893Z,72.42
2019-01-16T18:10:04.812Z,72.19
2019-01-16T18:14:46.318Z,72.43
2019-01-16T18:24:24.483Z,72.57
2019-01-16T18:28:00.281Z,72.82
2019-01-16T18:30:53.333Z,72.99
2019-01-16T18:33:57.967Z,73.19
2019-01-16T18:36:44.262Z,73.10
2019-01-16T18:39:21.924Z,73.19
2019-01-16T18:41:56.717Z,73.25
2019-01-16T18:44:30.704Z,73.62
2019-01-16T18:47:05.019Z,73.48
2019-01-16T18:49:42.186Z,73.33
2019-01-16T18:52:21.316Z,73.70
2019-01-16T18:55:02.347Z,73.69
2019-01-16T18:58:36.058Z,73.87
2019-01-16T19:01:14.337Z,74.18
2019-01-16T19:03:52.341Z,74.21
2019-01-16T19:06:26.574Z,74.09
2019-01-16T19:08:59.645Z,74.23
2019-01-16T19:13:40.129Z,74.53
2019-01-16T19:16:15.078Z,74.59
2019-01-16T19:18:49.320Z,74.79
2019-01-16T19:21:23.543Z,74.82
2019-01-16T19:23:58.652Z,74.51
2019-01-16T19:26:36.935Z,74.71
2019-01-16T19:29:11.150Z,75.07
2019-01-16T19:31:46.220Z,74.99
2019-01-16T19:34:22.454Z,75.07
2019-01-16T19:37:57.232Z,74.93
2019-01-16T19:40:39.419Z,75.10
2019-01-16T19:43:19.926Z,74.83
2019-01-16T19:45:54.999Z,75.09
2019-01-16T19:48:30.226Z,75.13
2019-01-16T19:52:01.845Z,75.02
2019-01-16T19:54:36.755Z,74.94
2019-01-16T19:57:11.186Z,74.75
2019-01-16T20:01:51.745Z,75.01
2019-01-16T20:04:26.893Z,74.83
2019-01-16T20:07:20.996Z,75.01
2019-01-16T20:10:04.068Z,75.14
2019-01-16T20:12:42.116Z,75.40
2019-01-16T20:15:17.621Z,75.46
2019-01-16T20:18:51.503Z,75.45
2019-01-16T20:21:32.202Z,75.19
2019-01-16T20:24:12.255Z,74.96
2019-01-16T20:26:58.352Z,74.79
2019-01-16T20:30:33.307Z,74.77
2019-01-16T20:35:15.220Z,74.51
2019-01-16T20:38:21.475Z,74.53
2019-01-16T20:43:01.348Z,74.58
2019-01-16T20:45:40.424Z,74.67
2019-01-16T20:49:17.744Z,74.97
2019-01-16T20:51:50.970Z,74.87
2019-01-16T20:54:57.406Z,75.00
2019-01-16T20:57:31.728Z,74.79
2019-01-16T21:02:10.615Z,74.96
2019-01-16T21:04:48.971Z,75.04
2019-01-16T21:07:26.020Z,75.00
2019-01-16T21:10:00.227Z,75.22
2019-01-16T21:14:39.888Z,74.96
2019-01-16T21:17:18.795Z,74.84
2019-01-16T21:19:52.806Z,74.86
2019-01-16T21:22:29.025Z,74.87
2019-01-16T21:25:03.291Z,75.21
2019-01-16T21:27:44.473Z,75.19
2019-01-16T21:30:19.801Z,75.29
2019-01-16T21:32:54.054Z,75.20
2019-01-16T21:35:40.251Z,75.34
2019-01-16T21:40:18.149Z,75.39
2019-01-16T21:42:52.318Z,75.32
2019-01-16T21:45:33.305Z,75.55
2019-01-16T21:49:10.174Z,76.07
2019-01-16T21:51:46.234Z,76.31
2019-01-16T21:54:26.372Z,76.36
2019-01-16T21:56:59.576Z,76.31
2019-01-16T21:59:35.527Z,76.40
2019-01-16T22:02:15.825Z,76.42
2019-01-16T22:04:50.004Z,76.60
2019-01-16T22:08:23.651Z,76.63
2019-01-16T22:10:56.791Z,76.55
2019-01-16T22:14:28.652Z,76.53
2019-01-16T22:17:07.125Z,76.28
2019-01-16T22:19:44.311Z,76.16
2019-01-16T22:22:27.589Z,76.05
2019-01-16T22:25:07.455Z,75.82
2019-01-16T22:27:57.691Z,75.97
2019-01-16T22:30:43.833Z,75.76
2019-01-16T22:33:19.724Z,75.51
2019-01-16T22:35:53.758Z,75.50
2019-01-16T22:38:29.947Z,74.96
2019-01-16T22:41:13.195Z,74.92
2019-01-16T22:43:52.411Z,74.47
2019-01-16T22:46:45.771Z,74.58
2019-01-16T22:49:19.842Z,74.61
2019-01-16T22:52:06.006Z,74.54
2019-01-16T22:55:37.903Z,74.71
2019-01-16T22:58:12.083Z,74.39
2019-01-16T23:00:50.839Z,74.35
2019-01-16T23:03:25.109Z,74.28
2019-01-16T23:06:01.295Z,74.37
2019-01-16T23:09:33.110Z,74.36
2019-01-16T23:12:09.042Z,74.26
2019-01-16T23:14:46.154Z,74.56
2019-01-16T23:17:26.255Z,74.41
2019-01-16T23:20:02.383Z,74.35
2019-01-16T23:22:40.436Z,73.92
2019-01-16T23:26:17.507Z,74.06
2019-01-16T23:30:59.286Z,73.70
2019-01-16T23:33:33.406Z,73.39
2019-01-16T23:36:19.135Z,73.40
2019-01-16T23:38:58.115Z,73.47
2019-01-16T23:42:35.259Z,73.07
2019-01-16T23:45:21.485Z,72.84
2019-01-16T23:48:02.578Z,72.74
2019-01-16T23:50:38.691Z,72.62
2019-01-16T23:54:17.509Z,72.45
2019-01-16T23:56:50.660Z,72.31
2019-01-16T23:59:27.774Z,72.12
